0P0 weather

Valley Forge Bicentennial Heliport
Norristown, Pennsylvania, United States

Public forecast

Using degrees Fahrenheit for public forecast. Weather courtesy of forecast.io.

METAR (pilot weather report)

Closest report is Wings Field, 6.5 nm (12.1 km) E. Retrieved 2019/07/18 23:35 UTC (0 seconds ago):

KLOM 182335Z AUTO 00000KT 10SM SCT006 OVC100 26/25 A2988 RMK AO2 T02580248

TAF (pilot weather forecast)

Closest forecast is Philadelphia International Airport, 16.8 nm (31.1 km) SSE. Retrieved 2019/07/18 18:27 UTC (5 hours ago):

TAF KPHL 181722Z 1818/1924 VRB04KT P6SM VCTS SCT025CB BKN100 TEMPO 1818/1822 3SM SHRA BKN020 FM182200 33005KT P6SM VCSH SCT020 BKN040 FM182300 01005KT P6SM SCT040 BKN200 FM190200 VRB02KT P6SM SCT020 BKN200 FM190900 VRB03KT 4SM BR BKN012 FM191300 24005KT 6SM HZ FEW050